Terminal Aerodrome Forecast
Issued by NWS

Home | Current Version | Previous Version | Text Only | Print | Product List | Glossary On
Versions: 1 2 3 4 5 6 7 8 9 10 11 12 13 14
000
FTUS42 KMLB 230520
TAFFPR
TAF
KFPR 230520Z 2306/2406 VRB03KT P6SM FEW015 SCT030 BKN250
     FM231400 08010KT P6SM SCT030
     FM240000 08007KT P6SM SCT035 SCT050=

USA.gov is the U.S. government's official web portal to all federal, state and local government web resources and services.